createdAt,value
2022-10-11T00:00:02.575Z,99.9
2022-10-11T00:02:07.876Z,99.9
2022-10-11T00:04:10.290Z,99.9
2022-10-11T00:06:12.530Z,99.9
2022-10-11T00:07:14.868Z,99.9
2022-10-11T00:09:16.267Z,99.9
2022-10-11T00:11:17.706Z,99.9
2022-10-11T00:13:19.142Z,99.9
2022-10-11T00:15:23.880Z,99.9
2022-10-11T00:17:25.292Z,99.9
2022-10-11T00:21:28.085Z,99.9
2022-10-11T00:23:29.465Z,99.9
2022-10-11T00:25:30.869Z,99.9
2022-10-11T00:27:32.235Z,99.9
2022-10-11T00:29:36.942Z,99.9
2022-10-11T00:31:38.350Z,99.9
2022-10-11T00:33:39.766Z,99.9
2022-10-11T00:35:41.130Z,99.9
2022-10-11T00:37:42.538Z,99.9
2022-10-11T00:39:43.927Z,99.9
2022-10-11T00:41:45.324Z,99.9
2022-10-11T00:43:50.029Z,99.9
2022-10-11T00:45:51.444Z,99.9
2022-10-11T00:47:52.858Z,99.9
2022-10-11T00:49:54.306Z,99.9
2022-10-11T00:51:55.704Z,99.9
2022-10-11T00:53:57.104Z,99.9
2022-10-11T00:55:58.508Z,99.9
2022-10-11T00:58:03.225Z,99.9
2022-10-11T01:00:04.598Z,99.9
2022-10-11T01:02:06.017Z,99.9
2022-10-11T01:03:08.349Z,99.9
2022-10-11T01:05:28.014Z,99.9
2022-10-11T01:07:11.127Z,99.9
2022-10-11T01:09:12.570Z,99.9
2022-10-11T01:11:18.048Z,99.9
2022-10-11T01:13:19.457Z,99.9
2022-10-11T01:15:20.873Z,99.9
2022-10-11T01:17:22.266Z,99.9
2022-10-11T01:19:23.643Z,99.9
2022-10-11T01:21:25.051Z,99.9
2022-10-11T01:23:26.460Z,99.9
2022-10-11T01:25:31.186Z,99.9
2022-10-11T01:27:32.558Z,99.9
2022-10-11T01:29:33.958Z,99.9
2022-10-11T01:33:36.737Z,99.9
2022-10-11T01:35:38.153Z,99.9
2022-10-11T01:37:39.551Z,99.9
2022-10-11T01:43:47.165Z,99.9
2022-10-11T01:45:48.563Z,99.9
2022-10-11T01:47:49.957Z,99.9
2022-10-11T01:49:51.354Z,99.9
2022-10-11T01:51:52.764Z,99.9
2022-10-11T01:53:57.497Z,99.9
2022-10-11T01:55:58.848Z,99.9
2022-10-11T01:58:00.275Z,99.9
2022-10-11T02:00:23.168Z,99.9
2022-10-11T02:04:25.934Z,99.9
2022-10-11T02:06:30.665Z,99.9
2022-10-11T02:08:32.062Z,99.9
2022-10-11T02:10:33.456Z,99.9
2022-10-11T02:12:34.898Z,99.9
2022-10-11T02:14:36.274Z,99.9
2022-10-11T02:16:37.685Z,99.9
2022-10-11T02:18:39.078Z,99.9
2022-10-11T02:20:43.797Z,99.9
2022-10-11T02:22:45.217Z,99.9
2022-10-11T02:26:48.072Z,99.9
2022-10-11T02:28:49.569Z,99.9
2022-10-11T02:30:50.907Z,99.9
2022-10-11T02:32:52.285Z,99.9
2022-10-11T02:34:57.015Z,99.9
2022-10-11T02:36:58.514Z,99.9
2022-10-11T02:38:59.795Z,99.9
2022-10-11T02:41:01.225Z,99.9
2022-10-11T02:43:02.587Z,99.9
2022-10-11T02:53:14.442Z,99.9
2022-10-11T02:54:16.802Z,99.9
2022-10-11T02:56:18.190Z,99.9
2022-10-11T02:58:19.586Z,99.9
2022-10-11T03:00:20.996Z,99.9
2022-10-11T03:02:25.932Z,99.9
2022-10-11T03:04:27.219Z,99.9
2022-10-11T03:06:28.684Z,99.9
2022-10-11T03:08:30.086Z,99.9
2022-10-11T03:10:31.475Z,99.9
2022-10-11T03:12:32.890Z,99.9
2022-10-11T03:14:34.282Z,99.9
2022-10-11T03:16:39.106Z,99.9
2022-10-11T03:18:40.545Z,99.9
2022-10-11T03:20:41.931Z,99.9
2022-10-11T03:22:44.142Z,99.9
2022-10-11T03:24:45.525Z,99.9
2022-10-11T03:26:46.897Z,99.9
2022-10-11T03:28:48.378Z,99.9
2022-10-11T03:30:52.984Z,99.9
2022-10-11T03:32:55.378Z,99.9
2022-10-11T03:36:58.178Z,99.9
2022-10-11T03:39:00.579Z,99.9
2022-10-11T03:41:01.921Z,99.9
2022-10-11T03:43:03.352Z,99.9
2022-10-11T03:45:08.126Z,99.9
2022-10-11T03:47:09.552Z,99.9
2022-10-11T03:49:10.890Z,99.9
2022-10-11T03:50:13.263Z,99.9
2022-10-11T03:52:14.667Z,99.9
2022-10-11T03:54:16.047Z,99.9
2022-10-11T03:56:17.470Z,99.9
2022-10-11T03:58:22.155Z,99.9
2022-10-11T04:00:23.599Z,99.9
2022-10-11T04:02:25.082Z,99.9
2022-10-11T04:04:26.547Z,99.9
2022-10-11T04:06:27.930Z,99.9
2022-10-11T04:08:29.323Z,99.9
2022-10-11T04:10:30.711Z,99.9
2022-10-11T04:16:38.265Z,99.9
2022-10-11T04:18:39.671Z,99.9
2022-10-11T04:20:41.089Z,99.9
2022-10-11T04:24:43.889Z,99.9
2022-10-11T04:26:48.615Z,99.9
2022-10-11T04:28:50.106Z,99.9
2022-10-11T04:30:51.423Z,99.9
2022-10-11T04:34:54.206Z,99.9
2022-10-11T04:38:57.928Z,99.9
2022-10-11T04:46:09.963Z,99.9
2022-10-11T04:48:10.949Z,99.9
2022-10-11T04:50:12.377Z,99.9
2022-10-11T04:52:13.829Z,99.9
2022-10-11T04:54:18.535Z,99.9
2022-10-11T04:56:19.941Z,99.9
2022-10-11T04:58:21.335Z,99.9
2022-10-11T05:00:22.722Z,99.9
2022-10-11T05:02:24.185Z,99.9
2022-10-11T05:04:25.506Z,99.9
2022-10-11T05:06:26.915Z,99.9
2022-10-11T05:08:31.585Z,99.9
2022-10-11T05:10:33.014Z,99.9
2022-10-11T05:12:34.476Z,99.9
2022-10-11T05:14:35.843Z,99.9
2022-10-11T05:16:37.298Z,99.9
2022-10-11T05:18:38.727Z,99.9
2022-10-11T05:20:40.123Z,99.9
2022-10-11T05:24:46.164Z,99.9
2022-10-11T05:26:47.543Z,99.9
2022-10-11T05:28:49.032Z,99.9
2022-10-11T05:30:50.427Z,99.9
2022-10-11T05:32:51.873Z,99.9
2022-10-11T05:34:53.254Z,99.9
2022-10-11T05:36:57.962Z,99.9
2022-10-11T05:38:59.354Z,99.9
2022-10-11T05:41:00.809Z,99.9
2022-10-11T05:43:23.996Z,99.9
2022-10-11T05:45:25.371Z,99.9
2022-10-11T05:47:26.738Z,99.9
2022-10-11T05:49:31.621Z,99.9
2022-10-11T05:51:33.671Z,99.9
2022-10-11T05:53:35.084Z,99.9
2022-10-11T05:55:36.560Z,99.9
2022-10-11T05:57:38.026Z,99.9
2022-10-11T05:59:39.479Z,99.9
2022-10-11T06:01:40.883Z,99.9
2022-10-11T06:03:45.613Z,99.9
2022-10-11T06:05:46.993Z,99.9
2022-10-11T06:07:48.343Z,99.9
2022-10-11T06:09:49.711Z,99.9
2022-10-11T06:11:51.079Z,99.9
2022-10-11T06:13:52.549Z,99.9
2022-10-11T06:22:01.757Z,99.9
2022-10-11T06:24:03.096Z,99.9
2022-10-11T06:30:07.343Z,99.9
2022-10-11T06:32:12.095Z,99.9
2022-10-11T06:34:13.486Z,99.9
2022-10-11T06:36:14.947Z,99.9
2022-10-11T06:39:18.676Z,99.9
2022-10-11T06:41:20.046Z,99.9
2022-10-11T06:43:21.447Z,99.9
2022-10-11T06:45:26.208Z,99.9
2022-10-11T06:47:27.620Z,99.9
2022-10-11T06:49:29.015Z,99.9
2022-10-11T06:51:30.435Z,99.9
2022-10-11T06:53:31.803Z,99.9
2022-10-11T06:55:33.207Z,99.9
2022-10-11T06:59:39.325Z,99.9
2022-10-11T07:01:40.783Z,99.9
2022-10-11T07:03:42.137Z,99.9
2022-10-11T07:05:43.509Z,99.9
2022-10-11T07:07:44.905Z,99.9
2022-10-11T07:09:46.309Z,99.9
2022-10-11T07:11:47.716Z,99.9
2022-10-11T07:13:52.457Z,99.9
2022-10-11T07:15:53.942Z,99.9
2022-10-11T07:17:55.350Z,99.9
2022-10-11T07:19:57.645Z,99.9
2022-10-11T07:21:59.016Z,99.9
2022-10-11T07:24:00.463Z,99.9
2022-10-11T07:26:02.079Z,99.9
2022-10-11T07:28:06.624Z,99.9
2022-10-11T07:30:08.019Z,99.9
2022-10-11T07:32:09.505Z,99.9
2022-10-11T07:33:11.820Z,99.9
2022-10-11T07:35:13.220Z,99.9
2022-10-11T07:37:14.648Z,99.9
2022-10-11T07:39:16.066Z,99.9
2022-10-11T07:41:20.787Z,99.9
2022-10-11T07:43:22.208Z,99.9
2022-10-11T07:45:23.651Z,99.9
2022-10-11T07:47:25.078Z,99.9
2022-10-11T07:49:26.504Z,99.9
2022-10-11T07:51:27.950Z,99.9
2022-10-11T07:53:29.492Z,99.9
2022-10-11T07:55:34.136Z,99.9
2022-10-11T07:57:35.510Z,99.9
2022-10-11T07:59:36.938Z,99.9
2022-10-11T08:01:38.372Z,99.9
2022-10-11T08:03:39.800Z,99.9
2022-10-11T08:05:41.213Z,99.9
2022-10-11T08:07:42.644Z,99.9
2022-10-11T08:09:48.304Z,99.9
2022-10-11T08:11:49.749Z,99.9
2022-10-11T08:13:51.350Z,99.9
2022-10-11T08:15:52.607Z,99.9
2022-10-11T08:17:54.043Z,99.9
2022-10-11T08:19:55.477Z,99.9
2022-10-11T08:21:56.881Z,99.9
2022-10-11T08:24:01.787Z,95
2022-10-11T08:26:03.418Z,93
2022-10-11T08:28:04.482Z,88.5
2022-10-11T08:29:06.880Z,88.2
2022-10-11T08:31:08.272Z,88.4
2022-10-11T08:33:09.726Z,87.7
2022-10-11T08:35:11.166Z,88.4
2022-10-11T08:37:17.432Z,89.4
2022-10-11T08:39:18.913Z,90
2022-10-11T08:41:20.287Z,90.2
2022-10-11T08:43:21.755Z,82.6
2022-10-11T08:45:23.172Z,76.7
2022-10-11T08:47:24.598Z,76.2
2022-10-11T08:49:26.033Z,67
2022-10-11T08:51:30.758Z,65.2
2022-10-11T08:53:32.186Z,64.7
2022-10-11T08:55:33.611Z,64
2022-10-11T08:57:35.063Z,63.3
2022-10-11T08:59:36.520Z,63
2022-10-11T09:01:38.016Z,61.1
2022-10-11T09:03:39.365Z,58.6
2022-10-11T09:05:44.092Z,57.6
2022-10-11T09:07:45.571Z,57.5
2022-10-11T09:09:46.976Z,57.2
2022-10-11T09:11:48.453Z,57.3
2022-10-11T09:13:49.850Z,57.2
2022-10-11T09:15:51.298Z,53.2
2022-10-11T09:17:52.736Z,52.6
2022-10-11T09:21:58.873Z,52.5
2022-10-11T09:24:00.293Z,52.7
2022-10-11T09:26:23.311Z,53.7
2022-10-11T09:28:25.179Z,54.5
2022-10-11T09:32:32.165Z,54.6
2022-10-11T09:34:33.581Z,54.2
2022-10-11T09:36:35.002Z,54.3
2022-10-11T09:40:38.920Z,53.8
2022-10-11T09:42:41.421Z,54
2022-10-11T09:46:47.538Z,55.1
2022-10-11T09:48:48.965Z,55.1
2022-10-11T09:50:50.395Z,55.3
2022-10-11T09:58:56.056Z,57.1
2022-10-11T10:01:06.592Z,57.4
2022-10-11T10:03:02.197Z,57.9
2022-10-11T10:05:03.638Z,57.9
2022-10-11T10:07:05.016Z,58.4
2022-10-11T10:09:06.456Z,59.1
2022-10-11T10:11:07.840Z,59.2
2022-10-11T10:13:09.272Z,59.8
2022-10-11T10:15:14.034Z,60.2
2022-10-11T10:17:15.440Z,60.5
2022-10-11T10:19:16.856Z,60.9
2022-10-11T10:22:20.623Z,61
2022-10-11T10:24:22.055Z,60.7
2022-10-11T10:26:23.446Z,60
2022-10-11T10:28:28.274Z,57.7
2022-10-11T10:30:34.508Z,57.2
2022-10-11T10:32:31.015Z,57.1
2022-10-11T10:34:32.423Z,58.5
2022-10-11T10:36:33.832Z,58.4
2022-10-11T10:38:35.258Z,58.5
2022-10-11T10:40:36.642Z,58.2
2022-10-11T10:42:41.397Z,57.2
2022-10-11T10:44:42.787Z,57.3
2022-10-11T10:46:45.224Z,57.5
2022-10-11T10:49:28.358Z,57.3
2022-10-11T10:50:47.026Z,57.1
2022-10-11T10:52:48.455Z,57.4
2022-10-11T10:54:49.850Z,57.5
2022-10-11T10:56:54.558Z,57
2022-10-11T10:58:56.019Z,57.1
2022-10-11T11:00:57.392Z,57.5
2022-10-11T11:02:58.922Z,57.7
2022-10-11T11:07:01.689Z,57.6
2022-10-11T11:09:03.072Z,57.4
2022-10-11T11:11:07.788Z,57.1
2022-10-11T11:13:09.217Z,57.1
2022-10-11T11:15:10.611Z,57.4
2022-10-11T11:18:14.377Z,57.8
2022-10-11T11:20:15.780Z,57.6
2022-10-11T11:22:17.245Z,57.5
2022-10-11T11:24:21.991Z,56.8
2022-10-11T11:26:23.320Z,56.7
2022-10-11T11:32:27.552Z,56.4
2022-10-11T11:34:28.973Z,56.5
2022-10-11T11:36:30.405Z,56.6
2022-10-11T11:38:35.119Z,56.8
2022-10-11T11:40:36.539Z,56.6
2022-10-11T11:42:37.908Z,56.1
2022-10-11T11:44:39.335Z,55.4
2022-10-11T11:46:40.751Z,54.5
2022-10-11T11:48:42.192Z,54.8
2022-10-11T11:50:43.513Z,55
2022-10-11T11:52:48.271Z,57
2022-10-11T11:54:49.627Z,57
2022-10-11T11:56:51.070Z,57.2
2022-10-11T11:58:52.465Z,57.4
2022-10-11T12:00:53.880Z,57.3
2022-10-11T12:02:55.280Z,57.6
2022-10-11T12:07:15.426Z,57.1
2022-10-11T12:09:02.836Z,57.1
2022-10-11T12:12:06.581Z,56.7
2022-10-11T12:14:07.992Z,56.5
2022-10-11T12:16:09.410Z,56.7
2022-10-11T12:20:16.137Z,58.5
2022-10-11T12:22:17.527Z,59.9
2022-10-11T12:24:18.936Z,59.8
2022-10-11T12:26:20.346Z,59.7
2022-10-11T12:28:21.933Z,59.8
2022-10-11T12:30:23.201Z,59.8
2022-10-11T12:32:24.586Z,59.8
2022-10-11T12:34:29.342Z,59.3
2022-10-11T12:36:30.663Z,59.1
2022-10-11T12:38:32.094Z,59
2022-10-11T12:40:33.473Z,58.6
2022-10-11T12:42:34.889Z,58.3
2022-10-11T12:44:36.316Z,58.1
2022-10-11T12:46:37.705Z,57.1
2022-10-11T12:48:42.425Z,55.9
2022-10-11T12:50:43.861Z,55.5
2022-10-11T12:52:46.211Z,54.9
2022-10-11T12:54:47.635Z,54.8
2022-10-11T12:56:49.088Z,54.5
2022-10-11T12:58:50.426Z,54.5
2022-10-11T13:00:51.924Z,54.6
2022-10-11T13:02:56.608Z,54.6
2022-10-11T13:04:57.968Z,55
2022-10-11T13:07:03.182Z,55.3
2022-10-11T13:09:22.506Z,58.6
2022-10-11T13:11:23.904Z,59.5
2022-10-11T13:13:26.462Z,59.9
2022-10-11T13:15:31.059Z,60.1
2022-10-11T13:17:38.006Z,60.3
2022-10-11T13:19:33.988Z,60.7
2022-10-11T13:21:36.339Z,61
2022-10-11T13:23:38.015Z,61.4
2022-10-11T13:25:40.228Z,61.8
2022-10-11T13:27:41.618Z,62.3
2022-10-11T13:29:46.382Z,62.6
2022-10-11T13:31:48.449Z,62.6
2022-10-11T13:33:49.872Z,62.8
2022-10-11T13:35:51.260Z,63.1
2022-10-11T13:37:53.228Z,63.5
2022-10-11T13:39:54.668Z,63.5
2022-10-11T13:41:56.078Z,63.7
2022-10-11T13:44:00.804Z,63.3
2022-10-11T13:46:02.345Z,63.2
2022-10-11T13:48:04.476Z,62.7
2022-10-11T13:50:05.877Z,62.6
2022-10-11T13:52:07.305Z,61.8
2022-10-11T13:54:13.149Z,61.5
2022-10-11T13:56:10.150Z,59.3
2022-10-11T13:58:18.590Z,47
2022-10-11T14:00:16.269Z,42.8
2022-10-11T14:02:18.680Z,42.3
2022-10-11T14:03:21.061Z,46.1
2022-10-11T14:05:22.506Z,46.8
2022-10-11T14:07:23.886Z,48.8
2022-10-11T14:09:25.375Z,53.7
2022-10-11T14:11:31.085Z,56.8
2022-10-11T14:13:32.461Z,54.7
2022-10-11T14:15:33.884Z,47.6
2022-10-11T14:19:36.772Z,45.7
2022-10-11T14:21:38.184Z,45.3
2022-10-11T14:23:39.600Z,44.3
2022-10-11T14:25:45.881Z,49.1
2022-10-11T14:27:47.288Z,51.3
2022-10-11T14:30:06.071Z,53.6
2022-10-11T14:31:50.069Z,55.1
2022-10-11T14:33:51.382Z,55.9
2022-10-11T14:39:58.963Z,59.7
2022-10-11T14:42:00.434Z,60
2022-10-11T14:44:01.819Z,60.5
2022-10-11T14:46:03.439Z,60.7
2022-10-11T14:48:05.634Z,60.9
2022-10-11T14:50:07.051Z,61
2022-10-11T14:52:08.516Z,61.3
2022-10-11T14:54:14.171Z,61.8
2022-10-11T14:56:21.081Z,62
2022-10-11T14:58:18.787Z,63.2
2022-10-11T14:59:22.172Z,65.4
2022-10-11T15:01:24.330Z,66.8
2022-10-11T15:03:25.718Z,71.3
2022-10-11T15:05:31.169Z,73.6
2022-10-11T15:07:31.851Z,74.7
2022-10-11T15:09:33.281Z,74.6
2022-10-11T15:11:34.701Z,74.8
2022-10-11T15:13:36.116Z,74.5
2022-10-11T15:15:37.562Z,74.3
2022-10-11T15:17:38.952Z,74
2022-10-11T15:19:40.383Z,73.3
2022-10-11T15:21:45.133Z,72.6
2022-10-11T15:23:46.559Z,72.4
2022-10-11T15:25:48.033Z,72.9
2022-10-11T15:27:49.419Z,74.2
2022-10-11T15:29:50.846Z,74.4
2022-10-11T15:31:52.258Z,74.6
2022-10-11T15:33:54.171Z,67.8
2022-10-11T15:35:58.919Z,64.9
2022-10-11T15:38:00.347Z,60
2022-10-11T15:40:01.749Z,57.6
2022-10-11T15:42:03.177Z,57.5
2022-10-11T15:44:04.623Z,58.8
2022-10-11T15:46:06.315Z,59.2
2022-10-11T15:48:07.470Z,58.9
2022-10-11T15:50:12.213Z,55
2022-10-11T15:52:13.639Z,54.7
2022-10-11T15:54:15.097Z,52.3
2022-10-11T15:55:17.413Z,51
2022-10-11T15:57:18.875Z,50.1
2022-10-11T15:59:20.279Z,49.9
2022-10-11T16:01:21.761Z,49.8
2022-10-11T16:03:26.457Z,49.6
2022-10-11T16:05:27.893Z,50.2
2022-10-11T16:07:29.298Z,53.8
2022-10-11T16:09:30.751Z,55.9
2022-10-11T16:11:32.178Z,56.3
2022-10-11T16:13:33.580Z,58.1
2022-10-11T16:15:35.014Z,60.2
2022-10-11T16:17:39.757Z,60.6
2022-10-11T16:19:41.214Z,60.8
2022-10-11T16:21:42.591Z,61.2
2022-10-11T16:23:44.025Z,61.5
2022-10-11T16:25:45.484Z,63.5
2022-10-11T16:27:46.882Z,63.9
2022-10-11T16:29:48.307Z,64.5
2022-10-11T16:33:54.483Z,66.9
2022-10-11T16:35:55.877Z,68.3
2022-10-11T16:37:57.315Z,72.6
2022-10-11T16:39:58.758Z,77.1
2022-10-11T16:42:00.178Z,81.6
2022-10-11T16:44:01.624Z,85.8
2022-10-11T16:46:06.635Z,89
2022-10-11T16:48:07.837Z,89.7
2022-10-11T16:52:29.999Z,92.4
2022-10-11T16:54:31.466Z,93.2
2022-10-11T16:56:37.378Z,94.8
2022-10-11T16:58:37.629Z,97.5
2022-10-11T17:00:39.094Z,98.2
2022-10-11T17:02:40.475Z,98.8
2022-10-11T17:04:41.948Z,99.1
2022-10-11T17:06:43.362Z,99.5
2022-10-11T17:10:46.267Z,99.9
2022-10-11T17:12:50.983Z,99.9
2022-10-11T17:14:52.424Z,99.9
2022-10-11T17:16:53.864Z,99.9
2022-10-11T17:18:55.307Z,99.9
2022-10-11T17:20:56.770Z,99.9
2022-10-11T17:22:58.200Z,99.9
2022-10-11T17:24:59.647Z,99.9
2022-10-11T17:27:04.373Z,99.9
2022-10-11T17:29:05.801Z,99.9
2022-10-11T17:31:07.821Z,99.9
2022-10-11T17:33:08.692Z,99.9
2022-10-11T17:35:10.102Z,99.9
2022-10-11T17:37:11.548Z,99.9
2022-10-11T17:39:12.979Z,99.9
2022-10-11T17:41:17.717Z,99.9
2022-10-11T17:45:20.548Z,99.9
2022-10-11T17:46:22.937Z,99.9
2022-10-11T17:48:24.368Z,99.9
2022-10-11T17:50:25.799Z,99.9
2022-10-11T17:52:27.233Z,99.9
2022-10-11T17:54:32.019Z,99.9
2022-10-11T17:56:37.750Z,99.9
2022-10-11T18:00:36.355Z,99.9
2022-10-11T18:02:37.755Z,99.9
2022-10-11T18:04:39.208Z,99.9
2022-10-11T18:06:40.640Z,99.9
2022-10-11T18:10:47.822Z,99.9
2022-10-11T18:12:48.285Z,99.9
2022-10-11T18:14:49.707Z,99.9
2022-10-11T18:16:51.148Z,99.9
2022-10-11T18:18:52.567Z,99.9
2022-10-11T18:20:54.174Z,99.9
2022-10-11T18:22:59.599Z,99.9
2022-10-11T18:25:01.820Z,99.9
2022-10-11T18:27:04.184Z,99.9
2022-10-11T18:29:05.612Z,99.9
2022-10-11T18:31:12.384Z,99.9
2022-10-11T18:33:09.470Z,99.9
2022-10-11T18:35:11.647Z,99.9
2022-10-11T18:37:16.400Z,99.9
2022-10-11T18:39:17.859Z,99.9
2022-10-11T18:41:19.253Z,99.9
2022-10-11T18:48:26.947Z,99.9
2022-10-11T18:54:36.533Z,99.9
2022-10-11T18:56:37.981Z,99.9
2022-10-11T18:58:39.389Z,99.9
2022-10-11T19:00:41.447Z,99.9
2022-10-11T19:04:47.053Z,99.9
2022-10-11T19:06:48.507Z,99.9
2022-10-11T19:08:49.883Z,99.9
2022-10-11T19:10:51.312Z,99.9
2022-10-11T19:14:54.200Z,99.9
2022-10-11T19:19:00.348Z,99.9
2022-10-11T19:21:01.973Z,99.9
2022-10-11T19:23:03.290Z,99.9
2022-10-11T19:25:04.703Z,99.9
2022-10-11T19:27:06.164Z,99.9
2022-10-11T19:29:07.737Z,99.9
2022-10-11T19:35:19.693Z,99.9
2022-10-11T19:37:16.736Z,99.9
2022-10-11T19:38:19.083Z,99.9
2022-10-11T19:40:20.532Z,99.9
2022-10-11T19:42:22.039Z,99.9
2022-10-11T19:44:23.466Z,99.9
2022-10-11T19:46:49.855Z,99.9
2022-10-11T19:48:29.602Z,99.9
2022-10-11T19:50:31.016Z,99.9
2022-10-11T19:52:32.658Z,99.9
2022-10-11T19:54:33.834Z,99.9
2022-10-11T19:56:35.260Z,99.9
2022-10-11T19:58:36.674Z,99.9
2022-10-11T20:00:41.402Z,99.9
2022-10-11T20:02:42.791Z,99.9
2022-10-11T20:04:52.887Z,99.9
2022-10-11T20:06:45.632Z,99.9
2022-10-11T20:08:55.928Z,99.9
2022-10-11T20:10:48.477Z,99.9
2022-10-11T20:12:49.881Z,99.9
2022-10-11T20:14:54.581Z,99.9
2022-10-11T20:16:57.566Z,99.9
2022-10-11T20:18:58.939Z,99.9
2022-10-11T20:21:00.499Z,99.9
2022-10-11T20:35:33.215Z,99.9
2022-10-11T20:37:35.530Z,99.9
2022-10-11T20:39:36.954Z,99.9
2022-10-11T20:45:46.227Z,99.9
2022-10-11T20:47:47.636Z,99.9
2022-10-11T20:49:49.056Z,99.9
2022-10-11T20:51:50.467Z,99.9
2022-10-11T20:53:51.864Z,99.9
2022-10-11T20:55:56.583Z,99.9
2022-10-11T20:57:58.055Z,99.9
2022-10-11T20:59:59.488Z,99.9
2022-10-11T21:02:00.911Z,99.9
2022-10-11T21:04:02.418Z,99.9
2022-10-11T21:06:03.793Z,99.9
2022-10-11T21:08:05.204Z,99.9
2022-10-11T21:10:09.911Z,99.9
2022-10-11T21:12:11.317Z,99.9
2022-10-11T21:14:12.686Z,99.9
2022-10-11T21:16:14.083Z,99.9
2022-10-11T21:18:15.487Z,99.9
2022-10-11T21:20:16.871Z,99.9
2022-10-11T21:22:18.290Z,99.9
2022-10-11T21:24:23.005Z,99.9
2022-10-11T21:26:24.388Z,99.9
2022-10-11T21:28:25.828Z,99.9
2022-10-11T21:29:28.181Z,99.9
2022-10-11T21:31:33.828Z,99.9
2022-10-11T21:33:30.956Z,99.9
2022-10-11T21:35:32.336Z,99.9
2022-10-11T21:37:37.468Z,99.9
2022-10-11T21:39:38.461Z,99.9
2022-10-11T21:41:39.928Z,99.9
2022-10-11T21:43:41.331Z,99.9
2022-10-11T21:45:42.732Z,99.9
2022-10-11T21:47:44.134Z,99.9
2022-10-11T21:49:45.533Z,99.9
2022-10-11T21:51:50.251Z,99.9
2022-10-11T21:53:51.730Z,99.9
2022-10-11T21:55:53.133Z,99.9
2022-10-11T21:57:54.597Z,99.9
2022-10-11T21:59:56.010Z,99.9
2022-10-11T22:02:01.689Z,99.9
2022-10-11T22:03:58.906Z,99.9
2022-10-11T22:06:03.646Z,99.9
2022-10-11T22:08:05.661Z,99.9
2022-10-11T22:10:07.049Z,99.9
2022-10-11T22:12:08.427Z,99.9
2022-10-11T22:14:09.814Z,99.9
2022-10-11T22:16:11.240Z,99.9
2022-10-11T22:18:12.608Z,99.9
2022-10-11T22:20:18.058Z,99.9
2022-10-11T22:22:20.251Z,99.9
2022-10-11T22:24:21.685Z,99.9
2022-10-11T22:29:30.504Z,99.9
2022-10-11T22:33:32.995Z,99.9
2022-10-11T22:37:35.892Z,99.9
2022-10-11T22:39:37.090Z,99.9
2022-10-11T22:41:38.458Z,99.9
2022-10-11T22:43:39.857Z,99.9
2022-10-11T22:45:41.267Z,99.9
2022-10-11T22:47:46.028Z,99.9
2022-10-11T22:49:47.378Z,99.9
2022-10-11T22:51:48.781Z,99.9
2022-10-11T22:55:51.574Z,99.9
2022-10-11T22:59:55.379Z,99.9
2022-10-11T23:04:01.514Z,99.9
2022-10-11T23:06:02.796Z,99.9
2022-10-11T23:08:04.186Z,99.9
2022-10-11T23:14:09.126Z,99.9
2022-10-11T23:16:14.597Z,99.9
2022-10-11T23:20:18.347Z,99.9
2022-10-11T23:21:20.687Z,99.9
2022-10-11T23:23:22.123Z,99.9
2022-10-11T23:25:23.514Z,99.9
2022-10-11T23:27:24.928Z,99.9
2022-10-11T23:33:32.594Z,99.9
2022-10-11T23:35:33.947Z,99.9
2022-10-11T23:37:35.772Z,99.9
2022-10-11T23:39:36.894Z,99.9
2022-10-11T23:41:38.292Z,99.9
2022-10-11T23:43:42.983Z,99.9
2022-10-11T23:45:44.388Z,99.9
2022-10-11T23:47:45.828Z,99.9
2022-10-11T23:49:47.201Z,99.9
2022-10-11T23:51:48.944Z,99.9
2022-10-11T23:53:50.324Z,99.9
2022-10-11T23:55:51.681Z,99.9
2022-10-11T23:57:57.337Z,99.9
2022-10-11T23:59:58.827Z,99.9
